sensor_id;sensor_type;location;lat;lon;timestamp;temperature;humidity
55135;DHT22;41031;44.750;11.308;2023-04-03T00:01:09;10.00;95.20
55135;DHT22;41031;44.750;11.308;2023-04-03T00:03:36;10.00;95.10
55135;DHT22;41031;44.750;11.308;2023-04-03T00:06:03;9.90;95.00
55135;DHT22;41031;44.750;11.308;2023-04-03T00:08:33;9.90;95.00
55135;DHT22;41031;44.750;11.308;2023-04-03T00:11:01;9.90;95.10
55135;DHT22;41031;44.750;11.308;2023-04-03T00:13:28;9.80;95.00
55135;DHT22;41031;44.750;11.308;2023-04-03T00:15:55;9.80;95.00
55135;DHT22;41031;44.750;11.308;2023-04-03T00:18:22;9.80;95.00
55135;DHT22;41031;44.750;11.308;2023-04-03T00:20:49;9.80;95.10
55135;DHT22;41031;44.750;11.308;2023-04-03T00:23:16;9.80;95.10
55135;DHT22;41031;44.750;11.308;2023-04-03T00:25:43;9.80;95.10
55135;DHT22;41031;44.750;11.308;2023-04-03T00:28:11;9.80;95.10
55135;DHT22;41031;44.750;11.308;2023-04-03T00:30:38;9.80;95.10
55135;DHT22;41031;44.750;11.308;2023-04-03T00:33:05;9.80;95.00
55135;DHT22;41031;44.750;11.308;2023-04-03T00:35:34;9.70;95.00
55135;DHT22;41031;44.750;11.308;2023-04-03T00:38:02;9.70;95.00
55135;DHT22;41031;44.750;11.308;2023-04-03T00:40:34;9.70;95.00
55135;DHT22;41031;44.750;11.308;2023-04-03T00:43:02;9.70;95.00
55135;DHT22;41031;44.750;11.308;2023-04-03T00:45:42;9.70;95.00
55135;DHT22;41031;44.750;11.308;2023-04-03T00:48:17;9.70;95.00
55135;DHT22;41031;44.750;11.308;2023-04-03T00:50:45;9.70;95.00
55135;DHT22;41031;44.750;11.308;2023-04-03T00:53:19;9.70;94.90
55135;DHT22;41031;44.750;11.308;2023-04-03T00:55:48;9.70;94.90
55135;DHT22;41031;44.750;11.308;2023-04-03T00:58:17;9.70;94.90
55135;DHT22;41031;44.750;11.308;2023-04-03T01:00:50;9.70;94.90
55135;DHT22;41031;44.750;11.308;2023-04-03T01:03:23;9.70;95.00
55135;DHT22;41031;44.750;11.308;2023-04-03T01:05:51;9.70;95.10
55135;DHT22;41031;44.750;11.308;2023-04-03T01:08:18;9.80;95.10
55135;DHT22;41031;44.750;11.308;2023-04-03T01:10:45;9.70;95.10
55135;DHT22;41031;44.750;11.308;2023-04-03T01:13:25;9.80;95.20
55135;DHT22;41031;44.750;11.308;2023-04-03T01:15:54;9.80;95.10
55135;DHT22;41031;44.750;11.308;2023-04-03T01:18:23;9.80;95.00
55135;DHT22;41031;44.750;11.308;2023-04-03T01:24:29;9.80;95.00
55135;DHT22;41031;44.750;11.308;2023-04-03T01:26:59;9.80;94.90
55135;DHT22;41031;44.750;11.308;2023-04-03T01:29:27;9.80;94.90
55135;DHT22;41031;44.750;11.308;2023-04-03T01:31:57;9.80;94.90
55135;DHT22;41031;44.750;11.308;2023-04-03T01:34:26;9.80;94.90
55135;DHT22;41031;44.750;11.308;2023-04-03T01:36:53;9.80;95.00
55135;DHT22;41031;44.750;11.308;2023-04-03T01:39:21;9.80;95.00
55135;DHT22;41031;44.750;11.308;2023-04-03T01:41:49;9.80;95.00
55135;DHT22;41031;44.750;11.308;2023-04-03T01:44:23;9.80;95.00
55135;DHT22;41031;44.750;11.308;2023-04-03T01:46:50;9.80;95.10
55135;DHT22;41031;44.750;11.308;2023-04-03T01:49:17;9.90;95.10
55135;DHT22;41031;44.750;11.308;2023-04-03T01:51:44;9.80;95.00
55135;DHT22;41031;44.750;11.308;2023-04-03T01:54:11;9.80;94.90
55135;DHT22;41031;44.750;11.308;2023-04-03T01:56:38;9.80;94.70
55135;DHT22;41031;44.750;11.308;2023-04-03T01:59:07;9.80;94.60
55135;DHT22;41031;44.750;11.308;2023-04-03T02:01:34;9.80;94.60
55135;DHT22;41031;44.750;11.308;2023-04-03T02:04:01;9.80;94.60
55135;DHT22;41031;44.750;11.308;2023-04-03T02:06:28;9.80;94.60
55135;DHT22;41031;44.750;11.308;2023-04-03T02:08:55;9.70;94.50
55135;DHT22;41031;44.750;11.308;2023-04-03T02:11:22;9.70;94.60
55135;DHT22;41031;44.750;11.308;2023-04-03T02:13:49;9.60;94.60
55135;DHT22;41031;44.750;11.308;2023-04-03T02:16:16;9.60;94.70
55135;DHT22;41031;44.750;11.308;2023-04-03T02:18:43;9.60;94.80
55135;DHT22;41031;44.750;11.308;2023-04-03T02:21:11;9.60;94.90
55135;DHT22;41031;44.750;11.308;2023-04-03T02:23:38;9.50;94.90
55135;DHT22;41031;44.750;11.308;2023-04-03T02:26:13;9.50;94.80
55135;DHT22;41031;44.750;11.308;2023-04-03T02:28:40;9.40;94.80
55135;DHT22;41031;44.750;11.308;2023-04-03T02:31:10;9.40;94.80
55135;DHT22;41031;44.750;11.308;2023-04-03T02:33:39;9.30;94.70
55135;DHT22;41031;44.750;11.308;2023-04-03T02:36:09;9.30;94.70
55135;DHT22;41031;44.750;11.308;2023-04-03T02:38:39;9.20;94.70
55135;DHT22;41031;44.750;11.308;2023-04-03T02:41:08;9.20;94.70
55135;DHT22;41031;44.750;11.308;2023-04-03T02:43:36;9.10;94.70
55135;DHT22;41031;44.750;11.308;2023-04-03T02:46:04;9.10;94.60
55135;DHT22;41031;44.750;11.308;2023-04-03T02:48:31;9.00;94.60
55135;DHT22;41031;44.750;11.308;2023-04-03T02:50:58;9.00;94.70
55135;DHT22;41031;44.750;11.308;2023-04-03T02:53:25;9.00;94.80
55135;DHT22;41031;44.750;11.308;2023-04-03T02:55:52;9.00;94.90
55135;DHT22;41031;44.750;11.308;2023-04-03T02:58:19;9.00;94.90
55135;DHT22;41031;44.750;11.308;2023-04-03T03:00:46;9.00;94.90
55135;DHT22;41031;44.750;11.308;2023-04-03T03:03:13;9.00;94.90
55135;DHT22;41031;44.750;11.308;2023-04-03T03:05:41;9.00;94.80
55135;DHT22;41031;44.750;11.308;2023-04-03T03:08:08;9.00;94.80
55135;DHT22;41031;44.750;11.308;2023-04-03T03:10:35;9.00;94.70
55135;DHT22;41031;44.750;11.308;2023-04-03T03:13:03;9.00;94.60
55135;DHT22;41031;44.750;11.308;2023-04-03T03:15:29;9.00;94.60
55135;DHT22;41031;44.750;11.308;2023-04-03T03:17:56;9.00;94.60
55135;DHT22;41031;44.750;11.308;2023-04-03T03:20:25;9.00;94.60
55135;DHT22;41031;44.750;11.308;2023-04-03T03:22:52;8.90;94.50
55135;DHT22;41031;44.750;11.308;2023-04-03T03:25:19;8.90;94.60
55135;DHT22;41031;44.750;11.308;2023-04-03T03:27:46;8.90;94.60
55135;DHT22;41031;44.750;11.308;2023-04-03T03:30:13;8.80;94.90
55135;DHT22;41031;44.750;11.308;2023-04-03T03:32:40;8.80;94.60
55135;DHT22;41031;44.750;11.308;2023-04-03T03:35:07;8.80;94.60
55135;DHT22;41031;44.750;11.308;2023-04-03T03:37:34;8.80;94.60
55135;DHT22;41031;44.750;11.308;2023-04-03T03:40:02;8.80;94.50
55135;DHT22;41031;44.750;11.308;2023-04-03T03:42:30;8.80;94.60
55135;DHT22;41031;44.750;11.308;2023-04-03T03:44:58;8.70;94.60
55135;DHT22;41031;44.750;11.308;2023-04-03T03:47:25;8.80;94.70
55135;DHT22;41031;44.750;11.308;2023-04-03T03:49:52;8.80;94.70
55135;DHT22;41031;44.750;11.308;2023-04-03T03:52:19;8.70;94.80
55135;DHT22;41031;44.750;11.308;2023-04-03T03:54:46;8.70;94.80
55135;DHT22;41031;44.750;11.308;2023-04-03T03:57:15;8.80;94.80
55135;DHT22;41031;44.750;11.308;2023-04-03T03:59:43;8.70;94.70
55135;DHT22;41031;44.750;11.308;2023-04-03T04:02:11;8.70;94.70
55135;DHT22;41031;44.750;11.308;2023-04-03T04:04:38;8.70;94.70
55135;DHT22;41031;44.750;11.308;2023-04-03T04:07:05;8.60;94.70
55135;DHT22;41031;44.750;11.308;2023-04-03T04:09:33;8.60;94.70
55135;DHT22;41031;44.750;11.308;2023-04-03T04:12:01;8.60;94.80
55135;DHT22;41031;44.750;11.308;2023-04-03T04:14:31;8.60;94.70
55135;DHT22;41031;44.750;11.308;2023-04-03T04:16:59;8.50;94.70
55135;DHT22;41031;44.750;11.308;2023-04-03T04:19:27;8.50;94.80
55135;DHT22;41031;44.750;11.308;2023-04-03T04:21:54;8.50;94.80
55135;DHT22;41031;44.750;11.308;2023-04-03T04:24:21;8.50;94.80
55135;DHT22;41031;44.750;11.308;2023-04-03T04:26:54;8.40;94.80
55135;DHT22;41031;44.750;11.308;2023-04-03T04:29:22;8.40;94.80
55135;DHT22;41031;44.750;11.308;2023-04-03T04:31:51;8.40;94.90
55135;DHT22;41031;44.750;11.308;2023-04-03T04:34:20;8.40;94.90
55135;DHT22;41031;44.750;11.308;2023-04-03T04:36:48;8.40;94.90
55135;DHT22;41031;44.750;11.308;2023-04-03T04:39:15;8.30;94.80
55135;DHT22;41031;44.750;11.308;2023-04-03T04:41:43;8.30;94.80
55135;DHT22;41031;44.750;11.308;2023-04-03T04:44:11;8.30;94.80
55135;DHT22;41031;44.750;11.308;2023-04-03T04:46:38;8.30;94.80
55135;DHT22;41031;44.750;11.308;2023-04-03T04:49:07;8.30;94.80
55135;DHT22;41031;44.750;11.308;2023-04-03T04:51:35;8.30;94.80
55135;DHT22;41031;44.750;11.308;2023-04-03T04:54:20;8.30;94.80
55135;DHT22;41031;44.750;11.308;2023-04-03T04:56:49;8.30;94.80
55135;DHT22;41031;44.750;11.308;2023-04-03T04:59:17;8.30;94.70
55135;DHT22;41031;44.750;11.308;2023-04-03T05:01:48;8.30;94.60
55135;DHT22;41031;44.750;11.308;2023-04-03T05:04:16;8.30;94.50
55135;DHT22;41031;44.750;11.308;2023-04-03T05:06:48;8.20;94.50
55135;DHT22;41031;44.750;11.308;2023-04-03T05:09:20;8.20;94.50
55135;DHT22;41031;44.750;11.308;2023-04-03T05:11:50;8.20;94.60
55135;DHT22;41031;44.750;11.308;2023-04-03T05:14:21;8.20;94.60
55135;DHT22;41031;44.750;11.308;2023-04-03T05:16:49;8.20;94.60
55135;DHT22;41031;44.750;11.308;2023-04-03T05:19:22;8.30;94.40
55135;DHT22;41031;44.750;11.308;2023-04-03T05:21:51;8.50;93.90
55135;DHT22;41031;44.750;11.308;2023-04-03T05:24:20;8.50;93.60
55135;DHT22;41031;44.750;11.308;2023-04-03T05:26:49;8.50;93.60
55135;DHT22;41031;44.750;11.308;2023-04-03T05:29:17;8.50;93.80
55135;DHT22;41031;44.750;11.308;2023-04-03T05:31:45;8.40;94.10
55135;DHT22;41031;44.750;11.308;2023-04-03T05:34:13;8.30;94.20
55135;DHT22;41031;44.750;11.308;2023-04-03T05:36:41;8.30;94.50
55135;DHT22;41031;44.750;11.308;2023-04-03T05:39:10;8.20;94.70
55135;DHT22;41031;44.750;11.308;2023-04-03T05:41:41;8.30;94.90
55135;DHT22;41031;44.750;11.308;2023-04-03T05:44:09;8.30;95.20
55135;DHT22;41031;44.750;11.308;2023-04-03T05:46:37;8.40;95.40
55135;DHT22;41031;44.750;11.308;2023-04-03T05:49:08;8.60;95.70
55135;DHT22;41031;44.750;11.308;2023-04-03T05:51:37;8.70;95.30
55135;DHT22;41031;44.750;11.308;2023-04-03T05:54:19;8.90;95.40
55135;DHT22;41031;44.750;11.308;2023-04-03T05:56:52;9.00;95.10
55135;DHT22;41031;44.750;11.308;2023-04-03T05:59:21;9.20;94.80
55135;DHT22;41031;44.750;11.308;2023-04-03T06:01:50;9.20;94.60
55135;DHT22;41031;44.750;11.308;2023-04-03T06:04:18;9.40;94.70
55135;DHT22;41031;44.750;11.308;2023-04-03T06:06:54;9.50;94.70
55135;DHT22;41031;44.750;11.308;2023-04-03T06:09:25;9.80;95.20
55135;DHT22;41031;44.750;11.308;2023-04-03T06:11:54;10.40;94.50
55135;DHT22;41031;44.750;11.308;2023-04-03T06:14:24;10.90;93.20
55135;DHT22;41031;44.750;11.308;2023-04-03T06:16:53;11.20;92.50
55135;DHT22;41031;44.750;11.308;2023-04-03T06:19:21;11.30;92.40
55135;DHT22;41031;44.750;11.308;2023-04-03T06:21:52;11.40;92.40
55135;DHT22;41031;44.750;11.308;2023-04-03T06:24:21;11.50;92.60
55135;DHT22;41031;44.750;11.308;2023-04-03T06:26:52;11.70;92.40
55135;DHT22;41031;44.750;11.308;2023-04-03T06:29:21;11.90;92.00
55135;DHT22;41031;44.750;11.308;2023-04-03T06:31:49;12.00;91.70
55135;DHT22;41031;44.750;11.308;2023-04-03T06:34:17;12.00;91.50
55135;DHT22;41031;44.750;11.308;2023-04-03T06:36:45;12.00;91.80
55135;DHT22;41031;44.750;11.308;2023-04-03T06:39:16;11.90;92.20
55135;DHT22;41031;44.750;11.308;2023-04-03T06:41:43;12.00;92.50
55135;DHT22;41031;44.750;11.308;2023-04-03T06:44:11;11.90;92.60
55135;DHT22;41031;44.750;11.308;2023-04-03T06:46:40;11.90;92.90
55135;DHT22;41031;44.750;11.308;2023-04-03T06:49:08;11.90;93.10
55135;DHT22;41031;44.750;11.308;2023-04-03T06:51:36;12.00;93.40
55135;DHT22;41031;44.750;11.308;2023-04-03T06:54:04;12.00;93.90
55135;DHT22;41031;44.750;11.308;2023-04-03T06:56:34;12.10;93.70
55135;DHT22;41031;44.750;11.308;2023-04-03T06:59:02;12.20;93.80
55135;DHT22;41031;44.750;11.308;2023-04-03T07:01:31;12.30;94.00
55135;DHT22;41031;44.750;11.308;2023-04-03T07:03:59;12.50;94.10
55135;DHT22;41031;44.750;11.308;2023-04-03T07:06:26;12.60;94.10
55135;DHT22;41031;44.750;11.308;2023-04-03T07:08:55;12.80;94.10
55135;DHT22;41031;44.750;11.308;2023-04-03T07:11:22;12.90;94.20
55135;DHT22;41031;44.750;11.308;2023-04-03T07:13:50;13.10;94.20
55135;DHT22;41031;44.750;11.308;2023-04-03T07:16:18;13.20;94.20
55135;DHT22;41031;44.750;11.308;2023-04-03T07:18:45;13.30;94.20
55135;DHT22;41031;44.750;11.308;2023-04-03T07:21:13;13.40;94.00
55135;DHT22;41031;44.750;11.308;2023-04-03T07:23:40;13.50;94.10
55135;DHT22;41031;44.750;11.308;2023-04-03T07:26:08;13.70;94.30
55135;DHT22;41031;44.750;11.308;2023-04-03T07:28:36;13.80;94.40
55135;DHT22;41031;44.750;11.308;2023-04-03T07:31:06;13.90;94.40
55135;DHT22;41031;44.750;11.308;2023-04-03T07:33:36;14.00;93.90
55135;DHT22;41031;44.750;11.308;2023-04-03T07:36:05;14.10;93.70
55135;DHT22;41031;44.750;11.308;2023-04-03T07:38:37;14.20;93.20
55135;DHT22;41031;44.750;11.308;2023-04-03T07:41:04;14.30;93.10
55135;DHT22;41031;44.750;11.308;2023-04-03T07:43:32;14.40;93.20
55135;DHT22;41031;44.750;11.308;2023-04-03T07:46:01;14.50;93.20
55135;DHT22;41031;44.750;11.308;2023-04-03T07:48:29;14.60;93.00
55135;DHT22;41031;44.750;11.308;2023-04-03T07:50:59;14.80;92.80
55135;DHT22;41031;44.750;11.308;2023-04-03T07:53:27;14.90;92.50
55135;DHT22;41031;44.750;11.308;2023-04-03T07:55:57;14.90;91.90
55135;DHT22;41031;44.750;11.308;2023-04-03T07:58:25;15.10;92.00
55135;DHT22;41031;44.750;11.308;2023-04-03T08:00:52;15.20;92.10
55135;DHT22;41031;44.750;11.308;2023-04-03T08:03:19;15.40;92.00
55135;DHT22;41031;44.750;11.308;2023-04-03T08:05:48;15.60;91.00
55135;DHT22;41031;44.750;11.308;2023-04-03T08:08:18;15.70;90.80
55135;DHT22;41031;44.750;11.308;2023-04-03T08:10:52;15.80;90.70
55135;DHT22;41031;44.750;11.308;2023-04-03T08:13:22;15.90;89.00
55135;DHT22;41031;44.750;11.308;2023-04-03T08:15:50;16.00;90.20
55135;DHT22;41031;44.750;11.308;2023-04-03T08:18:18;16.10;90.20
55135;DHT22;41031;44.750;11.308;2023-04-03T08:20:50;16.20;89.20
55135;DHT22;41031;44.750;11.308;2023-04-03T08:23:18;16.20;88.70
55135;DHT22;41031;44.750;11.308;2023-04-03T08:25:46;16.20;88.70
55135;DHT22;41031;44.750;11.308;2023-04-03T08:28:14;16.30;88.60
55135;DHT22;41031;44.750;11.308;2023-04-03T08:30:42;16.40;88.70
55135;DHT22;41031;44.750;11.308;2023-04-03T08:33:11;16.50;88.00
55135;DHT22;41031;44.750;11.308;2023-04-03T08:35:40;16.50;86.80
55135;DHT22;41031;44.750;11.308;2023-04-03T08:38:10;16.40;86.70
55135;DHT22;41031;44.750;11.308;2023-04-03T08:40:39;16.20;86.70
55135;DHT22;41031;44.750;11.308;2023-04-03T08:43:36;16.10;87.70
55135;DHT22;41031;44.750;11.308;2023-04-03T08:46:08;16.30;88.10
55135;DHT22;41031;44.750;11.308;2023-04-03T08:48:43;16.40;87.20
55135;DHT22;41031;44.750;11.308;2023-04-03T08:51:16;16.40;81.60
55135;DHT22;41031;44.750;11.308;2023-04-03T08:54:03;16.50;82.80
55135;DHT22;41031;44.750;11.308;2023-04-03T08:56:33;16.60;81.80
55135;DHT22;41031;44.750;11.308;2023-04-03T08:59:10;16.60;80.50
55135;DHT22;41031;44.750;11.308;2023-04-03T09:01:40;16.80;80.50
55135;DHT22;41031;44.750;11.308;2023-04-03T09:04:14;16.90;78.30
55135;DHT22;41031;44.750;11.308;2023-04-03T09:06:52;16.90;72.40
55135;DHT22;41031;44.750;11.308;2023-04-03T09:09:31;17.00;70.60
55135;DHT22;41031;44.750;11.308;2023-04-03T09:14:41;17.00;66.90
55135;DHT22;41031;44.750;11.308;2023-04-03T09:20:27;17.20;66.20
55135;DHT22;41031;44.750;11.308;2023-04-03T09:22:58;17.10;64.40
55135;DHT22;41031;44.750;11.308;2023-04-03T09:25:37;17.00;65.80
55135;DHT22;41031;44.750;11.308;2023-04-03T09:28:05;16.90;66.40
55135;DHT22;41031;44.750;11.308;2023-04-03T09:30:37;17.00;67.30
55135;DHT22;41031;44.750;11.308;2023-04-03T09:33:07;17.10;69.10
55135;DHT22;41031;44.750;11.308;2023-04-03T09:35:37;17.30;68.30
55135;DHT22;41031;44.750;11.308;2023-04-03T09:38:19;17.40;65.10
55135;DHT22;41031;44.750;11.308;2023-04-03T09:41:13;17.40;61.70
55135;DHT22;41031;44.750;11.308;2023-04-03T09:43:52;17.40;60.30
55135;DHT22;41031;44.750;11.308;2023-04-03T09:46:34;17.50;64.00
55135;DHT22;41031;44.750;11.308;2023-04-03T09:49:04;17.50;61.00
55135;DHT22;41031;44.750;11.308;2023-04-03T09:51:37;17.60;64.60
55135;DHT22;41031;44.750;11.308;2023-04-03T09:54:31;17.70;66.20
55135;DHT22;41031;44.750;11.308;2023-04-03T09:57:08;17.80;65.10
55135;DHT22;41031;44.750;11.308;2023-04-03T09:59:56;17.80;62.70
55135;DHT22;41031;44.750;11.308;2023-04-03T10:02:39;17.80;61.80
55135;DHT22;41031;44.750;11.308;2023-04-03T10:05:47;17.80;64.70
55135;DHT22;41031;44.750;11.308;2023-04-03T10:08:19;18.10;63.30
55135;DHT22;41031;44.750;11.308;2023-04-03T10:11:06;18.30;61.70
55135;DHT22;41031;44.750;11.308;2023-04-03T10:13:35;18.30;60.00
55135;DHT22;41031;44.750;11.308;2023-04-03T10:16:20;18.20;61.80
55135;DHT22;41031;44.750;11.308;2023-04-03T10:19:15;18.00;61.30
55135;DHT22;41031;44.750;11.308;2023-04-03T10:21:59;17.80;61.30
55135;DHT22;41031;44.750;11.308;2023-04-03T10:27:25;17.40;58.80
55135;DHT22;41031;44.750;11.308;2023-04-03T10:33:18;16.90;65.80
55135;DHT22;41031;44.750;11.308;2023-04-03T10:36:22;16.70;69.70
55135;DHT22;41031;44.750;11.308;2023-04-03T10:56:14;16.60;75.10
55135;DHT22;41031;44.750;11.308;2023-04-03T10:58:54;16.50;74.40
55135;DHT22;41031;44.750;11.308;2023-04-03T11:01:31;16.40;74.70
55135;DHT22;41031;44.750;11.308;2023-04-03T11:04:05;16.40;73.60
55135;DHT22;41031;44.750;11.308;2023-04-03T11:06:48;16.40;72.60
55135;DHT22;41031;44.750;11.308;2023-04-03T11:09:25;16.50;71.50
55135;DHT22;41031;44.750;11.308;2023-04-03T11:12:02;16.60;70.70
55135;DHT22;41031;44.750;11.308;2023-04-03T11:14:36;16.70;69.00
55135;DHT22;41031;44.750;11.308;2023-04-03T11:22:27;17.50;67.40
55135;DHT22;41031;44.750;11.308;2023-04-03T11:27:51;18.00;66.50
55135;DHT22;41031;44.750;11.308;2023-04-03T11:30:22;18.20;64.90
55135;DHT22;41031;44.750;11.308;2023-04-03T11:38:55;18.80;63.70
55135;DHT22;41031;44.750;11.308;2023-04-03T11:41:34;18.70;61.00
55135;DHT22;41031;44.750;11.308;2023-04-03T11:46:59;18.20;63.40
55135;DHT22;41031;44.750;11.308;2023-04-03T11:49:51;18.10;63.50
55135;DHT22;41031;44.750;11.308;2023-04-03T12:16:29;19.40;57.60
55135;DHT22;41031;44.750;11.308;2023-04-03T12:24:30;19.30;53.40
55135;DHT22;41031;44.750;11.308;2023-04-03T12:27:05;19.20;51.40
55135;DHT22;41031;44.750;11.308;2023-04-03T12:35:28;18.80;50.20
55135;DHT22;41031;44.750;11.308;2023-04-03T12:40:58;18.60;48.40
55135;DHT22;41031;44.750;11.308;2023-04-03T12:46:34;18.60;49.30
55135;DHT22;41031;44.750;11.308;2023-04-03T12:49:35;18.50;48.70
55135;DHT22;41031;44.750;11.308;2023-04-03T12:52:04;18.60;48.20
55135;DHT22;41031;44.750;11.308;2023-04-03T12:54:40;18.50;48.20
55135;DHT22;41031;44.750;11.308;2023-04-03T12:57:18;18.50;49.20
55135;DHT22;41031;44.750;11.308;2023-04-03T12:59:47;18.50;48.70
55135;DHT22;41031;44.750;11.308;2023-04-03T13:02:26;18.50;47.80
55135;DHT22;41031;44.750;11.308;2023-04-03T13:05:08;18.50;49.10
55135;DHT22;41031;44.750;11.308;2023-04-03T13:07:38;18.50;48.00
55135;DHT22;41031;44.750;11.308;2023-04-03T13:12:46;18.40;48.60
55135;DHT22;41031;44.750;11.308;2023-04-03T13:17:51;18.40;48.30
55135;DHT22;41031;44.750;11.308;2023-04-03T13:20:22;18.30;45.80
55135;DHT22;41031;44.750;11.308;2023-04-03T13:22:55;18.30;48.00
55135;DHT22;41031;44.750;11.308;2023-04-03T13:25:28;18.30;46.30
55135;DHT22;41031;44.750;11.308;2023-04-03T13:27:59;18.20;47.50
55135;DHT22;41031;44.750;11.308;2023-04-03T13:30:41;18.20;46.80
55135;DHT22;41031;44.750;11.308;2023-04-03T13:33:24;18.20;45.90
55135;DHT22;41031;44.750;11.308;2023-04-03T13:36:17;18.20;47.00
55135;DHT22;41031;44.750;11.308;2023-04-03T13:38:44;18.20;46.00
55135;DHT22;41031;44.750;11.308;2023-04-03T13:41:26;18.10;48.20
55135;DHT22;41031;44.750;11.308;2023-04-03T13:43:53;18.10;48.70
55135;DHT22;41031;44.750;11.308;2023-04-03T13:46:36;18.10;45.10
55135;DHT22;41031;44.750;11.308;2023-04-03T13:49:18;18.00;49.20
55135;DHT22;41031;44.750;11.308;2023-04-03T13:51:47;18.00;48.80
55135;DHT22;41031;44.750;11.308;2023-04-03T13:54:35;18.00;48.30
55135;DHT22;41031;44.750;11.308;2023-04-03T13:57:10;17.90;46.50
55135;DHT22;41031;44.750;11.308;2023-04-03T13:59:39;17.90;46.60
55135;DHT22;41031;44.750;11.308;2023-04-03T14:02:19;17.90;47.40
55135;DHT22;41031;44.750;11.308;2023-04-03T14:04:52;17.90;44.90
55135;DHT22;41031;44.750;11.308;2023-04-03T14:07:24;17.80;43.90
55135;DHT22;41031;44.750;11.308;2023-04-03T14:09:54;17.70;44.50
55135;DHT22;41031;44.750;11.308;2023-04-03T14:12:33;17.70;45.30
55135;DHT22;41031;44.750;11.308;2023-04-03T14:15:28;17.70;45.60
55135;DHT22;41031;44.750;11.308;2023-04-03T14:17:52;17.60;46.60
55135;DHT22;41031;44.750;11.308;2023-04-03T14:20:23;17.60;47.70
55135;DHT22;41031;44.750;11.308;2023-04-03T14:22:51;17.70;48.80
55135;DHT22;41031;44.750;11.308;2023-04-03T14:25:19;17.70;49.20
55135;DHT22;41031;44.750;11.308;2023-04-03T14:27:48;17.60;48.60
55135;DHT22;41031;44.750;11.308;2023-04-03T14:30:25;17.70;48.70
55135;DHT22;41031;44.750;11.308;2023-04-03T14:32:53;17.60;49.90
55135;DHT22;41031;44.750;11.308;2023-04-03T14:35:22;17.70;49.60
55135;DHT22;41031;44.750;11.308;2023-04-03T14:37:49;17.60;47.20
55135;DHT22;41031;44.750;11.308;2023-04-03T14:40:26;17.60;44.20
55135;DHT22;41031;44.750;11.308;2023-04-03T14:42:53;17.40;44.80
55135;DHT22;41031;44.750;11.308;2023-04-03T14:45:23;17.30;45.10
55135;DHT22;41031;44.750;11.308;2023-04-03T14:47:55;17.30;46.20
55135;DHT22;41031;44.750;11.308;2023-04-03T14:50:25;17.20;44.60
55135;DHT22;41031;44.750;11.308;2023-04-03T14:52:54;17.10;47.40
55135;DHT22;41031;44.750;11.308;2023-04-03T14:55:23;17.00;46.10
55135;DHT22;41031;44.750;11.308;2023-04-03T14:57:51;16.90;45.80
55135;DHT22;41031;44.750;11.308;2023-04-03T15:00:20;16.90;46.20
55135;DHT22;41031;44.750;11.308;2023-04-03T15:02:48;16.80;47.00
55135;DHT22;41031;44.750;11.308;2023-04-03T15:05:15;16.80;45.50
55135;DHT22;41031;44.750;11.308;2023-04-03T15:07:47;16.80;45.80
55135;DHT22;41031;44.750;11.308;2023-04-03T15:10:19;16.80;46.00
55135;DHT22;41031;44.750;11.308;2023-04-03T15:12:48;16.70;45.00
55135;DHT22;41031;44.750;11.308;2023-04-03T15:15:16;16.70;45.30
55135;DHT22;41031;44.750;11.308;2023-04-03T15:17:44;16.60;45.20
55135;DHT22;41031;44.750;11.308;2023-04-03T15:20:17;16.60;46.20
55135;DHT22;41031;44.750;11.308;2023-04-03T15:22:45;16.50;47.80
55135;DHT22;41031;44.750;11.308;2023-04-03T15:25:12;16.50;46.40
55135;DHT22;41031;44.750;11.308;2023-04-03T15:27:39;16.50;46.00
55135;DHT22;41031;44.750;11.308;2023-04-03T15:30:11;16.40;46.90
55135;DHT22;41031;44.750;11.308;2023-04-03T15:32:38;16.30;46.70
55135;DHT22;41031;44.750;11.308;2023-04-03T15:35:05;16.30;48.10
55135;DHT22;41031;44.750;11.308;2023-04-03T15:37:32;16.30;48.10
55135;DHT22;41031;44.750;11.308;2023-04-03T15:39:59;16.20;46.50
55135;DHT22;41031;44.750;11.308;2023-04-03T15:42:26;16.20;47.50
55135;DHT22;41031;44.750;11.308;2023-04-03T15:44:54;16.20;48.00
55135;DHT22;41031;44.750;11.308;2023-04-03T15:47:21;16.10;48.10
55135;DHT22;41031;44.750;11.308;2023-04-03T15:49:48;16.00;48.10
55135;DHT22;41031;44.750;11.308;2023-04-03T15:52:15;16.00;48.60
55135;DHT22;41031;44.750;11.308;2023-04-03T15:54:42;15.90;47.60
55135;DHT22;41031;44.750;11.308;2023-04-03T15:57:08;15.90;47.60
55135;DHT22;41031;44.750;11.308;2023-04-03T15:59:35;15.80;48.20
55135;DHT22;41031;44.750;11.308;2023-04-03T16:02:06;15.80;48.10
55135;DHT22;41031;44.750;11.308;2023-04-03T16:04:35;15.70;48.80
55135;DHT22;41031;44.750;11.308;2023-04-03T16:07:03;15.70;47.60
55135;DHT22;41031;44.750;11.308;2023-04-03T16:09:31;15.60;48.00
55135;DHT22;41031;44.750;11.308;2023-04-03T16:11:59;15.50;49.00
55135;DHT22;41031;44.750;11.308;2023-04-03T16:14:27;15.50;49.20
55135;DHT22;41031;44.750;11.308;2023-04-03T16:16:58;15.40;50.10
55135;DHT22;41031;44.750;11.308;2023-04-03T16:19:29;15.40;50.70
55135;DHT22;41031;44.750;11.308;2023-04-03T16:21:57;15.30;50.30
55135;DHT22;41031;44.750;11.308;2023-04-03T16:24:24;15.30;50.40
55135;DHT22;41031;44.750;11.308;2023-04-03T16:26:51;15.20;50.30
55135;DHT22;41031;44.750;11.308;2023-04-03T16:29:20;15.20;50.30
55135;DHT22;41031;44.750;11.308;2023-04-03T16:31:47;15.10;50.70
55135;DHT22;41031;44.750;11.308;2023-04-03T16:34:14;15.10;50.40
55135;DHT22;41031;44.750;11.308;2023-04-03T16:36:42;15.00;49.90
55135;DHT22;41031;44.750;11.308;2023-04-03T16:39:09;15.00;50.90
55135;DHT22;41031;44.750;11.308;2023-04-03T16:41:36;14.90;51.60
55135;DHT22;41031;44.750;11.308;2023-04-03T16:44:03;14.90;52.20
55135;DHT22;41031;44.750;11.308;2023-04-03T16:46:30;14.80;52.80
55135;DHT22;41031;44.750;11.308;2023-04-03T16:48:57;14.80;53.40
55135;DHT22;41031;44.750;11.308;2023-04-03T16:51:24;14.70;53.50
55135;DHT22;41031;44.750;11.308;2023-04-03T16:53:51;14.60;52.80
55135;DHT22;41031;44.750;11.308;2023-04-03T16:56:18;14.60;52.50
55135;DHT22;41031;44.750;11.308;2023-04-03T16:58:45;14.50;53.50
55135;DHT22;41031;44.750;11.308;2023-04-03T17:01:18;14.40;54.80
55135;DHT22;41031;44.750;11.308;2023-04-03T17:03:45;14.30;54.90
55135;DHT22;41031;44.750;11.308;2023-04-03T17:06:17;14.30;55.30
55135;DHT22;41031;44.750;11.308;2023-04-03T17:08:46;14.20;55.70
55135;DHT22;41031;44.750;11.308;2023-04-03T17:11:26;14.10;55.80
55135;DHT22;41031;44.750;11.308;2023-04-03T17:13:53;14.00;55.90
55135;DHT22;41031;44.750;11.308;2023-04-03T17:16:20;13.90;56.40
55135;DHT22;41031;44.750;11.308;2023-04-03T17:18:48;13.80;56.60
55135;DHT22;41031;44.750;11.308;2023-04-03T17:21:16;13.70;57.00